sensor_id;sensor_type;location;lat;lon;timestamp;temperature;humidity
60309;DHT22;50313;52.894;6.492;2022-09-17T00:01:56;9.30;99.90
60309;DHT22;50313;52.894;6.492;2022-09-17T00:04:22;9.40;99.90
60309;DHT22;50313;52.894;6.492;2022-09-17T00:06:48;9.40;99.90
60309;DHT22;50313;52.894;6.492;2022-09-17T00:09:14;9.30;99.90
60309;DHT22;50313;52.894;6.492;2022-09-17T00:11:42;9.30;99.90
60309;DHT22;50313;52.894;6.492;2022-09-17T00:14:13;9.20;99.90
60309;DHT22;50313;52.894;6.492;2022-09-17T00:16:42;9.20;99.90
60309;DHT22;50313;52.894;6.492;2022-09-17T00:19:13;9.20;99.90
60309;DHT22;50313;52.894;6.492;2022-09-17T00:21:40;9.30;99.90
60309;DHT22;50313;52.894;6.492;2022-09-17T00:24:06;9.40;99.90
60309;DHT22;50313;52.894;6.492;2022-09-17T00:26:33;9.50;99.90
60309;DHT22;50313;52.894;6.492;2022-09-17T00:29:00;9.70;99.90
60309;DHT22;50313;52.894;6.492;2022-09-17T00:31:28;9.80;99.90
60309;DHT22;50313;52.894;6.492;2022-09-17T00:33:54;10.00;99.90
60309;DHT22;50313;52.894;6.492;2022-09-17T00:36:20;10.10;99.90
60309;DHT22;50313;52.894;6.492;2022-09-17T00:38:51;10.20;99.90
60309;DHT22;50313;52.894;6.492;2022-09-17T00:41:17;10.20;99.90
60309;DHT22;50313;52.894;6.492;2022-09-17T00:43:46;10.20;99.90
60309;DHT22;50313;52.894;6.492;2022-09-17T00:48:54;10.10;99.90
60309;DHT22;50313;52.894;6.492;2022-09-17T00:51:27;10.00;99.90
60309;DHT22;50313;52.894;6.492;2022-09-17T00:53:55;9.90;99.90
60309;DHT22;50313;52.894;6.492;2022-09-17T00:56:22;9.90;99.90
60309;DHT22;50313;52.894;6.492;2022-09-17T00:58:50;9.70;99.90
60309;DHT22;50313;52.894;6.492;2022-09-17T01:01:16;9.60;99.90
60309;DHT22;50313;52.894;6.492;2022-09-17T01:03:42;9.50;99.90
60309;DHT22;50313;52.894;6.492;2022-09-17T01:17:29;9.20;99.90
60309;DHT22;50313;52.894;6.492;2022-09-17T01:29:27;9.00;99.90
60309;DHT22;50313;52.894;6.492;2022-09-17T01:34:33;9.20;99.90
60309;DHT22;50313;52.894;6.492;2022-09-17T01:37:13;9.30;99.90
60309;DHT22;50313;52.894;6.492;2022-09-17T01:39:42;9.40;99.90
60309;DHT22;50313;52.894;6.492;2022-09-17T01:47:23;9.70;99.90
60309;DHT22;50313;52.894;6.492;2022-09-17T01:49:54;9.70;99.90
60309;DHT22;50313;52.894;6.492;2022-09-17T01:52:22;9.60;99.90
60309;DHT22;50313;52.894;6.492;2022-09-17T01:54:54;9.70;99.90
60309;DHT22;50313;52.894;6.492;2022-09-17T02:00:13;9.70;99.90
60309;DHT22;50313;52.894;6.492;2022-09-17T02:03:05;9.70;99.90
60309;DHT22;50313;52.894;6.492;2022-09-17T02:05:42;9.70;99.90
60309;DHT22;50313;52.894;6.492;2022-09-17T02:08:22;9.60;99.90
60309;DHT22;50313;52.894;6.492;2022-09-17T02:10:56;9.50;99.90
60309;DHT22;50313;52.894;6.492;2022-09-17T02:13:59;9.50;99.90
60309;DHT22;50313;52.894;6.492;2022-09-17T02:16:36;9.50;99.90
60309;DHT22;50313;52.894;6.492;2022-09-17T02:19:22;9.50;99.90
60309;DHT22;50313;52.894;6.492;2022-09-17T02:22:13;9.50;99.90
60309;DHT22;50313;52.894;6.492;2022-09-17T02:27:50;9.60;99.90
60309;DHT22;50313;52.894;6.492;2022-09-17T02:30:17;9.60;99.90
60309;DHT22;50313;52.894;6.492;2022-09-17T02:32:43;9.60;99.90
60309;DHT22;50313;52.894;6.492;2022-09-17T02:35:09;9.70;99.90
60309;DHT22;50313;52.894;6.492;2022-09-17T02:37:39;9.60;99.90
60309;DHT22;50313;52.894;6.492;2022-09-17T02:40:06;9.70;99.90
60309;DHT22;50313;52.894;6.492;2022-09-17T02:45:48;9.80;99.90
60309;DHT22;50313;52.894;6.492;2022-09-17T02:51:22;9.80;99.90
60309;DHT22;50313;52.894;6.492;2022-09-17T02:54:13;10.00;99.90
60309;DHT22;50313;52.894;6.492;2022-09-17T03:02:13;9.90;99.90
60309;DHT22;50313;52.894;6.492;2022-09-17T03:04:44;9.90;99.90
60309;DHT22;50313;52.894;6.492;2022-09-17T03:07:12;9.80;99.90
60309;DHT22;50313;52.894;6.492;2022-09-17T03:09:38;9.80;99.90
60309;DHT22;50313;52.894;6.492;2022-09-17T03:12:06;9.70;99.90
60309;DHT22;50313;52.894;6.492;2022-09-17T03:14:32;9.70;99.90
60309;DHT22;50313;52.894;6.492;2022-09-17T03:16:57;9.60;99.90
60309;DHT22;50313;52.894;6.492;2022-09-17T03:19:23;9.60;99.90
60309;DHT22;50313;52.894;6.492;2022-09-17T03:21:49;9.50;99.90
60309;DHT22;50313;52.894;6.492;2022-09-17T03:24:14;9.50;99.90
60309;DHT22;50313;52.894;6.492;2022-09-17T03:26:40;9.40;99.90
60309;DHT22;50313;52.894;6.492;2022-09-17T03:29:06;9.40;99.90
60309;DHT22;50313;52.894;6.492;2022-09-17T03:31:31;9.30;99.90
60309;DHT22;50313;52.894;6.492;2022-09-17T03:33:57;9.30;99.90
60309;DHT22;50313;52.894;6.492;2022-09-17T03:36:23;9.20;99.90
60309;DHT22;50313;52.894;6.492;2022-09-17T03:38:54;9.10;99.90
60309;DHT22;50313;52.894;6.492;2022-09-17T03:41:19;9.10;99.90
60309;DHT22;50313;52.894;6.492;2022-09-17T03:43:45;9.10;99.90
60309;DHT22;50313;52.894;6.492;2022-09-17T03:46:11;9.00;99.90
60309;DHT22;50313;52.894;6.492;2022-09-17T03:48:37;8.90;99.90
60309;DHT22;50313;52.894;6.492;2022-09-17T03:51:05;8.80;99.90
60309;DHT22;50313;52.894;6.492;2022-09-17T03:53:31;8.80;99.90
60309;DHT22;50313;52.894;6.492;2022-09-17T03:56:02;8.90;99.90
60309;DHT22;50313;52.894;6.492;2022-09-17T03:58:28;8.90;99.90
60309;DHT22;50313;52.894;6.492;2022-09-17T04:00:54;8.90;99.90
60309;DHT22;50313;52.894;6.492;2022-09-17T04:03:32;8.90;99.90
60309;DHT22;50313;52.894;6.492;2022-09-17T04:05:57;9.10;99.90
60309;DHT22;50313;52.894;6.492;2022-09-17T04:08:24;9.10;99.90
60309;DHT22;50313;52.894;6.492;2022-09-17T04:10:50;9.40;99.90
60309;DHT22;50313;52.894;6.492;2022-09-17T04:13:18;9.30;99.90
60309;DHT22;50313;52.894;6.492;2022-09-17T04:15:45;9.30;99.90
60309;DHT22;50313;52.894;6.492;2022-09-17T04:18:11;9.20;99.90
60309;DHT22;50313;52.894;6.492;2022-09-17T04:20:38;9.10;99.90
60309;DHT22;50313;52.894;6.492;2022-09-17T04:23:04;9.10;99.90
60309;DHT22;50313;52.894;6.492;2022-09-17T04:25:32;9.10;99.90
60309;DHT22;50313;52.894;6.492;2022-09-17T04:27:57;9.10;99.90
60309;DHT22;50313;52.894;6.492;2022-09-17T04:30:23;9.00;99.90
60309;DHT22;50313;52.894;6.492;2022-09-17T04:32:49;9.10;99.90
60309;DHT22;50313;52.894;6.492;2022-09-17T04:35:15;9.10;99.90
60309;DHT22;50313;52.894;6.492;2022-09-17T04:37:40;9.10;99.90
60309;DHT22;50313;52.894;6.492;2022-09-17T04:40:07;9.10;99.90
60309;DHT22;50313;52.894;6.492;2022-09-17T04:42:33;9.10;99.90
60309;DHT22;50313;52.894;6.492;2022-09-17T04:44:59;9.20;99.90
60309;DHT22;50313;52.894;6.492;2022-09-17T04:47:25;9.20;99.90
60309;DHT22;50313;52.894;6.492;2022-09-17T04:49:51;9.30;99.90
60309;DHT22;50313;52.894;6.492;2022-09-17T04:52:17;9.20;99.90
60309;DHT22;50313;52.894;6.492;2022-09-17T04:54:42;9.20;99.90
60309;DHT22;50313;52.894;6.492;2022-09-17T04:57:08;9.20;99.90
60309;DHT22;50313;52.894;6.492;2022-09-17T04:59:34;9.30;99.90
60309;DHT22;50313;52.894;6.492;2022-09-17T05:01:59;9.30;99.90
60309;DHT22;50313;52.894;6.492;2022-09-17T05:04:25;9.30;99.90
60309;DHT22;50313;52.894;6.492;2022-09-17T05:06:51;9.30;99.90
60309;DHT22;50313;52.894;6.492;2022-09-17T05:09:17;9.40;99.90
60309;DHT22;50313;52.894;6.492;2022-09-17T05:11:42;9.50;99.90
60309;DHT22;50313;52.894;6.492;2022-09-17T05:14:08;9.50;99.90
60309;DHT22;50313;52.894;6.492;2022-09-17T05:16:34;9.50;99.90
60309;DHT22;50313;52.894;6.492;2022-09-17T05:19:00;9.40;99.90
60309;DHT22;50313;52.894;6.492;2022-09-17T05:21:25;9.40;99.90
60309;DHT22;50313;52.894;6.492;2022-09-17T05:23:51;9.40;99.90
60309;DHT22;50313;52.894;6.492;2022-09-17T05:26:17;9.40;99.90
60309;DHT22;50313;52.894;6.492;2022-09-17T05:28:42;9.30;99.90
60309;DHT22;50313;52.894;6.492;2022-09-17T05:31:08;9.40;99.90
60309;DHT22;50313;52.894;6.492;2022-09-17T05:33:34;9.40;99.90
60309;DHT22;50313;52.894;6.492;2022-09-17T05:35:59;9.40;99.90
60309;DHT22;50313;52.894;6.492;2022-09-17T05:38:25;9.40;99.90
60309;DHT22;50313;52.894;6.492;2022-09-17T05:40:51;9.40;99.90
60309;DHT22;50313;52.894;6.492;2022-09-17T05:43:17;9.40;99.90
60309;DHT22;50313;52.894;6.492;2022-09-17T05:45:43;9.50;99.90
60309;DHT22;50313;52.894;6.492;2022-09-17T05:48:11;9.40;99.90
60309;DHT22;50313;52.894;6.492;2022-09-17T05:50:37;9.30;99.90
60309;DHT22;50313;52.894;6.492;2022-09-17T05:53:05;9.40;99.90
60309;DHT22;50313;52.894;6.492;2022-09-17T05:55:32;9.30;99.90
60309;DHT22;50313;52.894;6.492;2022-09-17T05:57:59;9.30;99.90
60309;DHT22;50313;52.894;6.492;2022-09-17T06:00:26;9.40;99.90
60309;DHT22;50313;52.894;6.492;2022-09-17T06:02:55;9.40;99.90
60309;DHT22;50313;52.894;6.492;2022-09-17T06:05:23;9.40;99.90
60309;DHT22;50313;52.894;6.492;2022-09-17T06:07:49;9.50;99.90
60309;DHT22;50313;52.894;6.492;2022-09-17T06:10:16;9.60;99.90
60309;DHT22;50313;52.894;6.492;2022-09-17T06:12:41;9.70;99.90
60309;DHT22;50313;52.894;6.492;2022-09-17T06:15:07;9.60;99.90
60309;DHT22;50313;52.894;6.492;2022-09-17T06:17:34;9.50;99.90
60309;DHT22;50313;52.894;6.492;2022-09-17T06:20:02;9.50;99.90
60309;DHT22;50313;52.894;6.492;2022-09-17T06:22:28;9.40;99.90
60309;DHT22;50313;52.894;6.492;2022-09-17T06:24:53;9.30;99.90
60309;DHT22;50313;52.894;6.492;2022-09-17T06:27:19;9.20;99.90
60309;DHT22;50313;52.894;6.492;2022-09-17T06:29:45;9.30;99.90
60309;DHT22;50313;52.894;6.492;2022-09-17T06:32:10;9.30;99.90
60309;DHT22;50313;52.894;6.492;2022-09-17T06:34:38;9.50;99.90
60309;DHT22;50313;52.894;6.492;2022-09-17T06:37:04;9.60;99.90
60309;DHT22;50313;52.894;6.492;2022-09-17T06:39:30;9.70;99.90
60309;DHT22;50313;52.894;6.492;2022-09-17T06:41:56;9.80;99.90
60309;DHT22;50313;52.894;6.492;2022-09-17T06:44:22;9.80;99.90
60309;DHT22;50313;52.894;6.492;2022-09-17T06:46:51;9.90;99.90
60309;DHT22;50313;52.894;6.492;2022-09-17T06:49:17;9.90;99.90
60309;DHT22;50313;52.894;6.492;2022-09-17T06:51:43;9.90;99.90
60309;DHT22;50313;52.894;6.492;2022-09-17T06:54:09;9.90;99.90
60309;DHT22;50313;52.894;6.492;2022-09-17T06:56:35;9.80;99.90
60309;DHT22;50313;52.894;6.492;2022-09-17T06:59:01;9.80;99.90
60309;DHT22;50313;52.894;6.492;2022-09-17T07:01:27;9.90;99.90
60309;DHT22;50313;52.894;6.492;2022-09-17T07:03:53;10.00;99.90
60309;DHT22;50313;52.894;6.492;2022-09-17T07:06:19;10.10;99.90
60309;DHT22;50313;52.894;6.492;2022-09-17T07:08:45;10.30;99.90
60309;DHT22;50313;52.894;6.492;2022-09-17T07:11:12;10.30;99.90
60309;DHT22;50313;52.894;6.492;2022-09-17T07:13:38;10.30;99.90
60309;DHT22;50313;52.894;6.492;2022-09-17T07:16:04;10.40;99.90
60309;DHT22;50313;52.894;6.492;2022-09-17T07:18:31;10.40;99.90
60309;DHT22;50313;52.894;6.492;2022-09-17T07:21:01;10.40;99.90
60309;DHT22;50313;52.894;6.492;2022-09-17T07:23:31;10.50;99.90
60309;DHT22;50313;52.894;6.492;2022-09-17T07:25:59;10.70;99.90
60309;DHT22;50313;52.894;6.492;2022-09-17T07:28:26;10.90;99.90
60309;DHT22;50313;52.894;6.492;2022-09-17T07:30:53;11.20;99.90
60309;DHT22;50313;52.894;6.492;2022-09-17T07:33:25;11.40;99.90
60309;DHT22;50313;52.894;6.492;2022-09-17T07:35:59;11.50;99.90
60309;DHT22;50313;52.894;6.492;2022-09-17T07:38:27;11.50;99.90
60309;DHT22;50313;52.894;6.492;2022-09-17T07:40:58;11.40;99.90
60309;DHT22;50313;52.894;6.492;2022-09-17T07:43:25;11.30;99.90
60309;DHT22;50313;52.894;6.492;2022-09-17T07:45:52;11.20;99.90
60309;DHT22;50313;52.894;6.492;2022-09-17T07:48:19;11.30;99.90
60309;DHT22;50313;52.894;6.492;2022-09-17T07:50:45;11.40;99.90
60309;DHT22;50313;52.894;6.492;2022-09-17T07:53:11;11.70;99.90
60309;DHT22;50313;52.894;6.492;2022-09-17T07:55:37;11.90;99.90
60309;DHT22;50313;52.894;6.492;2022-09-17T07:58:02;12.20;99.90
60309;DHT22;50313;52.894;6.492;2022-09-17T08:00:28;12.70;99.90
60309;DHT22;50313;52.894;6.492;2022-09-17T08:02:55;12.70;99.90
60309;DHT22;50313;52.894;6.492;2022-09-17T08:05:22;12.70;99.90
60309;DHT22;50313;52.894;6.492;2022-09-17T08:07:53;12.40;99.90
60309;DHT22;50313;52.894;6.492;2022-09-17T08:10:21;12.10;99.90
60309;DHT22;50313;52.894;6.492;2022-09-17T08:12:54;11.80;99.90
60309;DHT22;50313;52.894;6.492;2022-09-17T08:15:22;11.70;99.90
60309;DHT22;50313;52.894;6.492;2022-09-17T08:17:47;11.80;99.90
60309;DHT22;50313;52.894;6.492;2022-09-17T08:20:14;11.80;99.90
60309;DHT22;50313;52.894;6.492;2022-09-17T08:22:40;11.90;99.90
60309;DHT22;50313;52.894;6.492;2022-09-17T08:25:07;12.10;99.90
60309;DHT22;50313;52.894;6.492;2022-09-17T08:27:33;12.10;99.90
60309;DHT22;50313;52.894;6.492;2022-09-17T08:29:59;12.10;99.90
60309;DHT22;50313;52.894;6.492;2022-09-17T08:32:25;12.10;99.90
60309;DHT22;50313;52.894;6.492;2022-09-17T08:34:51;12.00;99.90
60309;DHT22;50313;52.894;6.492;2022-09-17T08:37:19;11.90;99.90
60309;DHT22;50313;52.894;6.492;2022-09-17T08:39:45;12.00;99.90
60309;DHT22;50313;52.894;6.492;2022-09-17T08:44:48;12.20;99.90
60309;DHT22;50313;52.894;6.492;2022-09-17T08:47:27;12.30;99.90
60309;DHT22;50313;52.894;6.492;2022-09-17T08:50:05;12.40;99.90
60309;DHT22;50313;52.894;6.492;2022-09-17T08:55:32;12.50;99.90
60309;DHT22;50313;52.894;6.492;2022-09-17T09:00:39;12.10;99.90
60309;DHT22;50313;52.894;6.492;2022-09-17T09:06:04;12.40;99.90
60309;DHT22;50313;52.894;6.492;2022-09-17T09:08:59;12.40;99.90
60309;DHT22;50313;52.894;6.492;2022-09-17T09:11:29;12.40;99.90
60309;DHT22;50313;52.894;6.492;2022-09-17T09:14:23;12.50;99.90
60309;DHT22;50313;52.894;6.492;2022-09-17T09:16:51;12.60;99.90
60309;DHT22;50313;52.894;6.492;2022-09-17T09:22:17;13.00;99.90
60309;DHT22;50313;52.894;6.492;2022-09-17T09:24:47;13.00;99.90
60309;DHT22;50313;52.894;6.492;2022-09-17T09:27:19;12.80;99.90
60309;DHT22;50313;52.894;6.492;2022-09-17T09:30:04;12.80;99.90
60309;DHT22;50313;52.894;6.492;2022-09-17T09:40:36;14.00;99.90
60309;DHT22;50313;52.894;6.492;2022-09-17T09:54:48;13.50;99.90
60309;DHT22;50313;52.894;6.492;2022-09-17T09:57:21;13.50;99.90
60309;DHT22;50313;52.894;6.492;2022-09-17T09:59:48;13.50;99.90
60309;DHT22;50313;52.894;6.492;2022-09-17T10:02:14;13.50;99.90
60309;DHT22;50313;52.894;6.492;2022-09-17T10:04:40;13.40;99.90
60309;DHT22;50313;52.894;6.492;2022-09-17T10:07:08;13.00;99.90
60309;DHT22;50313;52.894;6.492;2022-09-17T10:09:37;12.90;99.90
60309;DHT22;50313;52.894;6.492;2022-09-17T10:14:44;12.70;99.90
60309;DHT22;50313;52.894;6.492;2022-09-17T10:17:24;12.60;99.90
60309;DHT22;50313;52.894;6.492;2022-09-17T10:22:37;13.00;99.90
60309;DHT22;50313;52.894;6.492;2022-09-17T10:25:13;13.50;99.90
60309;DHT22;50313;52.894;6.492;2022-09-17T10:27:44;13.70;99.90
60309;DHT22;50313;52.894;6.492;2022-09-17T10:32:37;13.20;99.90
60309;DHT22;50313;52.894;6.492;2022-09-17T10:43:16;13.10;99.90
60309;DHT22;50313;52.894;6.492;2022-09-17T10:45:34;13.30;99.90
60309;DHT22;50313;52.894;6.492;2022-09-17T10:48:01;13.60;99.90
60309;DHT22;50313;52.894;6.492;2022-09-17T10:50:32;13.80;99.90
60309;DHT22;50313;52.894;6.492;2022-09-17T10:53:06;14.10;99.90
60309;DHT22;50313;52.894;6.492;2022-09-17T11:11:53;14.70;99.90
60309;DHT22;50313;52.894;6.492;2022-09-17T11:14:39;14.60;99.90
60309;DHT22;50313;52.894;6.492;2022-09-17T11:19:58;12.50;99.90
60309;DHT22;50313;52.894;6.492;2022-09-17T11:25:49;11.50;99.90
60309;DHT22;50313;52.894;6.492;2022-09-17T11:42:14;11.20;99.90
60309;DHT22;50313;52.894;6.492;2022-09-17T11:47:24;11.20;99.90
60309;DHT22;50313;52.894;6.492;2022-09-17T11:50:26;11.20;99.90
60309;DHT22;50313;52.894;6.492;2022-09-17T11:53:03;11.60;99.90
60309;DHT22;50313;52.894;6.492;2022-09-17T11:55:36;12.00;99.90
60309;DHT22;50313;52.894;6.492;2022-09-17T12:00:53;12.00;99.90
60309;DHT22;50313;52.894;6.492;2022-09-17T12:03:36;11.90;99.90
60309;DHT22;50313;52.894;6.492;2022-09-17T12:06:09;11.80;99.90
60309;DHT22;50313;52.894;6.492;2022-09-17T12:08:57;11.80;99.90
60309;DHT22;50313;52.894;6.492;2022-09-17T12:11:40;12.00;99.90
60309;DHT22;50313;52.894;6.492;2022-09-17T12:16:45;12.30;99.90
60309;DHT22;50313;52.894;6.492;2022-09-17T12:19:21;12.30;99.90
60309;DHT22;50313;52.894;6.492;2022-09-17T12:22:22;12.40;99.90
60309;DHT22;50313;52.894;6.492;2022-09-17T12:24:51;12.60;99.90
60309;DHT22;50313;52.894;6.492;2022-09-17T12:27:34;12.80;99.90
60309;DHT22;50313;52.894;6.492;2022-09-17T12:30:09;12.70;99.90
60309;DHT22;50313;52.894;6.492;2022-09-17T12:33:01;13.10;99.90
60309;DHT22;50313;52.894;6.492;2022-09-17T12:41:41;14.20;99.90
60309;DHT22;50313;52.894;6.492;2022-09-17T12:59:09;13.30;99.90
60309;DHT22;50313;52.894;6.492;2022-09-17T13:21:13;15.00;99.90
60309;DHT22;50313;52.894;6.492;2022-09-17T13:23:46;15.10;99.90
60309;DHT22;50313;52.894;6.492;2022-09-17T13:26:16;15.10;99.90
60309;DHT22;50313;52.894;6.492;2022-09-17T13:28:49;15.20;99.90
60309;DHT22;50313;52.894;6.492;2022-09-17T13:36:49;15.30;99.90
60309;DHT22;50313;52.894;6.492;2022-09-17T13:42:25;15.00;97.00
60309;DHT22;50313;52.894;6.492;2022-09-17T13:45:07;15.00;96.90
60309;DHT22;50313;52.894;6.492;2022-09-17T13:47:47;15.20;98.40
60309;DHT22;50313;52.894;6.492;2022-09-17T13:50:34;15.30;94.30
60309;DHT22;50313;52.894;6.492;2022-09-17T13:55:58;15.50;93.40
60309;DHT22;50313;52.894;6.492;2022-09-17T13:58:27;15.50;93.30
60309;DHT22;50313;52.894;6.492;2022-09-17T14:03:50;15.50;95.30
60309;DHT22;50313;52.894;6.492;2022-09-17T14:08:48;15.20;97.40
60309;DHT22;50313;52.894;6.492;2022-09-17T14:16:43;13.50;99.90
60309;DHT22;50313;52.894;6.492;2022-09-17T14:19:29;13.30;99.90
60309;DHT22;50313;52.894;6.492;2022-09-17T14:35:11;12.70;99.90
60309;DHT22;50313;52.894;6.492;2022-09-17T14:37:39;12.40;99.90
60309;DHT22;50313;52.894;6.492;2022-09-17T14:40:09;12.20;99.90
60309;DHT22;50313;52.894;6.492;2022-09-17T14:42:36;12.30;99.90
60309;DHT22;50313;52.894;6.492;2022-09-17T14:45:11;12.40;99.90
60309;DHT22;50313;52.894;6.492;2022-09-17T14:47:38;12.70;99.90
60309;DHT22;50313;52.894;6.492;2022-09-17T14:50:25;13.40;99.90
60309;DHT22;50313;52.894;6.492;2022-09-17T14:52:52;13.50;99.90
60309;DHT22;50313;52.894;6.492;2022-09-17T14:55:22;12.90;99.90
60309;DHT22;50313;52.894;6.492;2022-09-17T14:57:59;12.40;99.90
60309;DHT22;50313;52.894;6.492;2022-09-17T15:00:50;11.90;99.90
60309;DHT22;50313;52.894;6.492;2022-09-17T15:03:21;11.70;99.90
60309;DHT22;50313;52.894;6.492;2022-09-17T15:05:48;11.70;99.90
60309;DHT22;50313;52.894;6.492;2022-09-17T15:08:18;11.60;99.90
60309;DHT22;50313;52.894;6.492;2022-09-17T15:10:58;11.60;99.90
60309;DHT22;50313;52.894;6.492;2022-09-17T15:16:03;12.00;99.90
60309;DHT22;50313;52.894;6.492;2022-09-17T15:18:39;12.30;99.90
60309;DHT22;50313;52.894;6.492;2022-09-17T15:23:52;12.50;99.90
60309;DHT22;50313;52.894;6.492;2022-09-17T15:26:24;13.00;99.90
60309;DHT22;50313;52.894;6.492;2022-09-17T15:28:53;13.60;99.90
60309;DHT22;50313;52.894;6.492;2022-09-17T15:31:23;13.80;99.90
60309;DHT22;50313;52.894;6.492;2022-09-17T15:33:52;14.30;99.90
60309;DHT22;50313;52.894;6.492;2022-09-17T15:36:23;14.30;99.90
60309;DHT22;50313;52.894;6.492;2022-09-17T15:38:50;14.00;99.90
60309;DHT22;50313;52.894;6.492;2022-09-17T15:41:35;13.60;99.90
60309;DHT22;50313;52.894;6.492;2022-09-17T15:46:37;13.10;99.90
60309;DHT22;50313;52.894;6.492;2022-09-17T15:49:23;12.90;99.90
60309;DHT22;50313;52.894;6.492;2022-09-17T15:51:49;12.90;99.90
60309;DHT22;50313;52.894;6.492;2022-09-17T15:54:30;13.40;99.90
60309;DHT22;50313;52.894;6.492;2022-09-17T15:56:59;13.80;99.90
60309;DHT22;50313;52.894;6.492;2022-09-17T15:59:30;13.90;99.90
60309;DHT22;50313;52.894;6.492;2022-09-17T16:02:00;13.90;99.90
60309;DHT22;50313;52.894;6.492;2022-09-17T16:04:33;13.70;99.90
60309;DHT22;50313;52.894;6.492;2022-09-17T16:07:00;14.10;99.90
60309;DHT22;50313;52.894;6.492;2022-09-17T16:09:40;13.90;99.90
60309;DHT22;50313;52.894;6.492;2022-09-17T16:12:07;13.60;99.90
60309;DHT22;50313;52.894;6.492;2022-09-17T16:14:35;13.30;99.90
60309;DHT22;50313;52.894;6.492;2022-09-17T16:17:29;12.90;99.90
60309;DHT22;50313;52.894;6.492;2022-09-17T16:19:57;12.80;99.90
60309;DHT22;50313;52.894;6.492;2022-09-17T16:22:24;12.70;99.90
60309;DHT22;50313;52.894;6.492;2022-09-17T16:24:51;12.90;99.90
60309;DHT22;50313;52.894;6.492;2022-09-17T16:27:21;13.30;99.90
60309;DHT22;50313;52.894;6.492;2022-09-17T16:29:49;13.80;99.90
60309;DHT22;50313;52.894;6.492;2022-09-17T16:32:15;14.30;99.90
60309;DHT22;50313;52.894;6.492;2022-09-17T16:34:41;14.50;99.90
60309;DHT22;50313;52.894;6.492;2022-09-17T16:37:08;14.40;99.90
60309;DHT22;50313;52.894;6.492;2022-09-17T16:39:35;14.70;99.90
60309;DHT22;50313;52.894;6.492;2022-09-17T16:42:01;14.50;99.90
60309;DHT22;50313;52.894;6.492;2022-09-17T16:44:26;14.10;99.90
60309;DHT22;50313;52.894;6.492;2022-09-17T16:46:52;13.60;99.90
60309;DHT22;50313;52.894;6.492;2022-09-17T16:49:18;13.10;99.90
60309;DHT22;50313;52.894;6.492;2022-09-17T16:51:43;12.80;99.90
60309;DHT22;50313;52.894;6.492;2022-09-17T16:54:09;12.60;99.90
60309;DHT22;50313;52.894;6.492;2022-09-17T16:56:35;12.70;99.90
60309;DHT22;50313;52.894;6.492;2022-09-17T16:59:00;12.60;99.90
60309;DHT22;50313;52.894;6.492;2022-09-17T17:01:26;12.40;99.90
60309;DHT22;50313;52.894;6.492;2022-09-17T17:03:52;12.30;99.90
60309;DHT22;50313;52.894;6.492;2022-09-17T17:06:19;12.10;99.90
60309;DHT22;50313;52.894;6.492;2022-09-17T17:08:46;12.10;99.90
60309;DHT22;50313;52.894;6.492;2022-09-17T17:11:12;11.90;99.90
60309;DHT22;50313;52.894;6.492;2022-09-17T17:13:40;11.90;99.90
60309;DHT22;50313;52.894;6.492;2022-09-17T17:16:08;11.70;99.90
60309;DHT22;50313;52.894;6.492;2022-09-17T17:18:34;11.80;99.90
60309;DHT22;50313;52.894;6.492;2022-09-17T17:21:08;11.70;99.90
60309;DHT22;50313;52.894;6.492;2022-09-17T17:23:34;11.70;99.90
60309;DHT22;50313;52.894;6.492;2022-09-17T17:26:00;11.60;99.90
60309;DHT22;50313;52.894;6.492;2022-09-17T17:28:30;11.60;99.90
60309;DHT22;50313;52.894;6.492;2022-09-17T17:30:56;11.60;99.90
60309;DHT22;50313;52.894;6.492;2022-09-17T17:33:21;11.60;99.90
60309;DHT22;50313;52.894;6.492;2022-09-17T17:35:48;11.50;99.90
60309;DHT22;50313;52.894;6.492;2022-09-17T17:38:16;11.50;99.90
60309;DHT22;50313;52.894;6.492;2022-09-17T17:40:42;11.50;99.90
60309;DHT22;50313;52.894;6.492;2022-09-17T17:43:10;11.50;99.90
60309;DHT22;50313;52.894;6.492;2022-09-17T17:45:36;11.50;99.90
60309;DHT22;50313;52.894;6.492;2022-09-17T17:48:02;11.50;99.90
60309;DHT22;50313;52.894;6.492;2022-09-17T17:50:28;11.50;99.90
60309;DHT22;50313;52.894;6.492;2022-09-17T17:52:54;11.50;99.90
60309;DHT22;50313;52.894;6.492;2022-09-17T17:55:20;11.40;99.90
60309;DHT22;50313;52.894;6.492;2022-09-17T17:57:46;11.40;99.90
60309;DHT22;50313;52.894;6.492;2022-09-17T18:00:12;11.40;99.90
60309;DHT22;50313;52.894;6.492;2022-09-17T18:02:39;11.30;99.90
60309;DHT22;50313;52.894;6.492;2022-09-17T18:05:05;11.30;99.90
60309;DHT22;50313;52.894;6.492;2022-09-17T18:07:31;11.20;99.90
60309;DHT22;50313;52.894;6.492;2022-09-17T18:09:57;11.10;99.90
60309;DHT22;50313;52.894;6.492;2022-09-17T18:12:22;11.10;99.90
60309;DHT22;50313;52.894;6.492;2022-09-17T18:14:48;11.10;99.90
60309;DHT22;50313;52.894;6.492;2022-09-17T18:17:14;11.10;99.90
60309;DHT22;50313;52.894;6.492;2022-09-17T18:19:39;11.10;99.90
60309;DHT22;50313;52.894;6.492;2022-09-17T18:22:05;11.10;99.90
60309;DHT22;50313;52.894;6.492;2022-09-17T18:24:31;11.10;99.90
60309;DHT22;50313;52.894;6.492;2022-09-17T18:26:57;11.00;99.90
60309;DHT22;50313;52.894;6.492;2022-09-17T18:29:22;11.00;99.90
60309;DHT22;50313;52.894;6.492;2022-09-17T18:31:48;11.00;99.90
60309;DHT22;50313;52.894;6.492;2022-09-17T18:34:15;11.00;99.90
60309;DHT22;50313;52.894;6.492;2022-09-17T18:36:41;11.00;99.90
60309;DHT22;50313;52.894;6.492;2022-09-17T18:39:10;11.00;99.90
60309;DHT22;50313;52.894;6.492;2022-09-17T18:41:38;11.00;99.90
60309;DHT22;50313;52.894;6.492;2022-09-17T18:44:09;11.00;99.90
60309;DHT22;50313;52.894;6.492;2022-09-17T18:46:35;11.00;99.90
60309;DHT22;50313;52.894;6.492;2022-09-17T18:49:02;11.00;99.90
60309;DHT22;50313;52.894;6.492;2022-09-17T18:51:28;11.00;99.90
60309;DHT22;50313;52.894;6.492;2022-09-17T18:53:54;11.10;99.90
60309;DHT22;50313;52.894;6.492;2022-09-17T18:56:23;11.10;99.90
60309;DHT22;50313;52.894;6.492;2022-09-17T18:58:51;11.10;99.90
60309;DHT22;50313;52.894;6.492;2022-09-17T19:01:19;11.10;99.90
60309;DHT22;50313;52.894;6.492;2022-09-17T19:03:46;11.00;99.90
60309;DHT22;50313;52.894;6.492;2022-09-17T19:06:12;11.00;99.90
60309;DHT22;50313;52.894;6.492;2022-09-17T19:08:40;11.00;99.90
60309;DHT22;50313;52.894;6.492;2022-09-17T19:11:06;10.90;99.90
60309;DHT22;50313;52.894;6.492;2022-09-17T19:13:42;10.90;99.90
60309;DHT22;50313;52.894;6.492;2022-09-17T19:16:09;10.90;99.90
60309;DHT22;50313;52.894;6.492;2022-09-17T19:18:36;10.80;99.90
60309;DHT22;50313;52.894;6.492;2022-09-17T19:21:09;10.70;99.90
60309;DHT22;50313;52.894;6.492;2022-09-17T19:23:42;10.60;99.90
60309;DHT22;50313;52.894;6.492;2022-09-17T19:26:19;10.60;99.90
60309;DHT22;50313;52.894;6.492;2022-09-17T19:28:46;10.60;99.90
60309;DHT22;50313;52.894;6.492;2022-09-17T19:31:14;10.50;99.90
60309;DHT22;50313;52.894;6.492;2022-09-17T19:33:40;10.40;99.90
60309;DHT22;50313;52.894;6.492;2022-09-17T19:36:09;10.40;99.90
60309;DHT22;50313;52.894;6.492;2022-09-17T19:38:35;10.30;99.90